sensor_id;sensor_type;location;lat;lon;timestamp;P1;durP1;ratioP1;P2;durP2;ratioP2
12316;SDS011;6222;50.866;6.744;2022-08-21T00:00:15;9.10;;;4.97;;
12316;SDS011;6222;50.866;6.744;2022-08-21T00:02:44;6.93;;;5.18;;
12316;SDS011;6222;50.866;6.744;2022-08-21T00:05:11;7.88;;;5.18;;
12316;SDS011;6222;50.866;6.744;2022-08-21T00:07:39;7.00;;;4.60;;
12316;SDS011;6222;50.866;6.744;2022-08-21T00:10:06;7.43;;;4.70;;
12316;SDS011;6222;50.866;6.744;2022-08-21T00:12:33;7.85;;;4.57;;
12316;SDS011;6222;50.866;6.744;2022-08-21T00:15:00;6.90;;;4.57;;
12316;SDS011;6222;50.866;6.744;2022-08-21T00:17:29;6.83;;;4.97;;
12316;SDS011;6222;50.866;6.744;2022-08-21T00:19:56;7.53;;;4.43;;
12316;SDS011;6222;50.866;6.744;2022-08-21T00:22:23;10.93;;;4.40;;
12316;SDS011;6222;50.866;6.744;2022-08-21T00:24:50;9.60;;;4.28;;
12316;SDS011;6222;50.866;6.744;2022-08-21T00:27:17;7.57;;;4.43;;
12316;SDS011;6222;50.866;6.744;2022-08-21T00:29:44;7.60;;;4.35;;
12316;SDS011;6222;50.866;6.744;2022-08-21T00:32:11;7.03;;;4.15;;
12316;SDS011;6222;50.866;6.744;2022-08-21T00:34:40;9.15;;;4.40;;
12316;SDS011;6222;50.866;6.744;2022-08-21T00:37:07;8.27;;;4.20;;
12316;SDS011;6222;50.866;6.744;2022-08-21T00:39:34;6.93;;;4.10;;
12316;SDS011;6222;50.866;6.744;2022-08-21T00:42:01;7.90;;;4.10;;
12316;SDS011;6222;50.866;6.744;2022-08-21T00:44:28;7.97;;;3.83;;
12316;SDS011;6222;50.866;6.744;2022-08-21T00:46:56;7.68;;;4.10;;
12316;SDS011;6222;50.866;6.744;2022-08-21T00:49:23;8.10;;;4.35;;
12316;SDS011;6222;50.866;6.744;2022-08-21T00:51:52;7.15;;;4.10;;
12316;SDS011;6222;50.866;6.744;2022-08-21T00:54:20;7.93;;;4.25;;
12316;SDS011;6222;50.866;6.744;2022-08-21T00:56:50;6.57;;;3.80;;
12316;SDS011;6222;50.866;6.744;2022-08-21T00:59:19;6.63;;;3.95;;
12316;SDS011;6222;50.866;6.744;2022-08-21T01:01:47;8.50;;;4.05;;
12316;SDS011;6222;50.866;6.744;2022-08-21T01:04:14;6.40;;;4.00;;
12316;SDS011;6222;50.866;6.744;2022-08-21T01:06:41;7.38;;;4.30;;
12316;SDS011;6222;50.866;6.744;2022-08-21T01:09:10;4.68;;;3.75;;
12316;SDS011;6222;50.866;6.744;2022-08-21T01:11:37;6.25;;;4.15;;
12316;SDS011;6222;50.866;6.744;2022-08-21T01:14:04;6.97;;;4.32;;
12316;SDS011;6222;50.866;6.744;2022-08-21T01:16:32;6.45;;;4.32;;
12316;SDS011;6222;50.866;6.744;2022-08-21T01:18:59;5.55;;;3.80;;
12316;SDS011;6222;50.866;6.744;2022-08-21T01:21:28;6.78;;;3.92;;
12316;SDS011;6222;50.866;6.744;2022-08-21T01:23:55;6.28;;;3.85;;
12316;SDS011;6222;50.866;6.744;2022-08-21T01:26:24;6.65;;;4.05;;
12316;SDS011;6222;50.866;6.744;2022-08-21T01:28:52;5.90;;;3.97;;
12316;SDS011;6222;50.866;6.744;2022-08-21T01:31:22;6.68;;;3.50;;
12316;SDS011;6222;50.866;6.744;2022-08-21T01:33:50;7.03;;;3.83;;
12316;SDS011;6222;50.866;6.744;2022-08-21T01:36:17;4.85;;;3.35;;
12316;SDS011;6222;50.866;6.744;2022-08-21T01:38:46;6.80;;;3.58;;
12316;SDS011;6222;50.866;6.744;2022-08-21T01:41:13;6.88;;;3.63;;
12316;SDS011;6222;50.866;6.744;2022-08-21T01:43:41;5.00;;;3.35;;
12316;SDS011;6222;50.866;6.744;2022-08-21T01:46:08;6.30;;;3.38;;
12316;SDS011;6222;50.866;6.744;2022-08-21T01:48:36;6.43;;;3.60;;
12316;SDS011;6222;50.866;6.744;2022-08-21T01:51:03;5.47;;;3.60;;
12316;SDS011;6222;50.866;6.744;2022-08-21T01:53:31;7.43;;;3.60;;
12316;SDS011;6222;50.866;6.744;2022-08-21T01:56:00;5.53;;;3.60;;
12316;SDS011;6222;50.866;6.744;2022-08-21T01:58:27;5.15;;;3.38;;
12316;SDS011;6222;50.866;6.744;2022-08-21T02:00:54;6.60;;;3.42;;
12316;SDS011;6222;50.866;6.744;2022-08-21T02:03:21;4.95;;;3.55;;
12316;SDS011;6222;50.866;6.744;2022-08-21T02:05:49;6.32;;;3.08;;
12316;SDS011;6222;50.866;6.744;2022-08-21T02:08:16;7.15;;;3.60;;
12316;SDS011;6222;50.866;6.744;2022-08-21T02:10:43;6.63;;;3.22;;
12316;SDS011;6222;50.866;6.744;2022-08-21T02:13:13;5.93;;;3.47;;
12316;SDS011;6222;50.866;6.744;2022-08-21T02:15:40;4.90;;;2.88;;
12316;SDS011;6222;50.866;6.744;2022-08-21T02:18:07;6.78;;;3.08;;
12316;SDS011;6222;50.866;6.744;2022-08-21T02:20:35;5.93;;;2.80;;
12316;SDS011;6222;50.866;6.744;2022-08-21T02:23:04;5.70;;;3.03;;
12316;SDS011;6222;50.866;6.744;2022-08-21T02:25:31;5.37;;;3.07;;
12316;SDS011;6222;50.866;6.744;2022-08-21T02:28:02;6.93;;;3.20;;
12316;SDS011;6222;50.866;6.744;2022-08-21T02:30:32;6.88;;;3.65;;
12316;SDS011;6222;50.866;6.744;2022-08-21T02:33:00;3.67;;;2.70;;
12316;SDS011;6222;50.866;6.744;2022-08-21T02:35:27;7.28;;;3.50;;
12316;SDS011;6222;50.866;6.744;2022-08-21T02:37:56;7.50;;;3.25;;
12316;SDS011;6222;50.866;6.744;2022-08-21T02:40:25;4.78;;;3.30;;
12316;SDS011;6222;50.866;6.744;2022-08-21T02:42:52;7.28;;;3.30;;
12316;SDS011;6222;50.866;6.744;2022-08-21T02:45:19;6.47;;;3.50;;
12316;SDS011;6222;50.866;6.744;2022-08-21T02:47:48;4.57;;;3.22;;
12316;SDS011;6222;50.866;6.744;2022-08-21T02:50:17;7.22;;;3.42;;
12316;SDS011;6222;50.866;6.744;2022-08-21T02:52:45;5.65;;;3.10;;
12316;SDS011;6222;50.866;6.744;2022-08-21T02:55:12;4.57;;;3.10;;
12316;SDS011;6222;50.866;6.744;2022-08-21T02:57:39;5.53;;;2.85;;
12316;SDS011;6222;50.866;6.744;2022-08-21T03:00:07;6.20;;;3.40;;
12316;SDS011;6222;50.866;6.744;2022-08-21T03:02:37;6.07;;;3.33;;
12316;SDS011;6222;50.866;6.744;2022-08-21T03:05:06;5.00;;;2.97;;
12316;SDS011;6222;50.866;6.744;2022-08-21T03:07:35;6.70;;;3.58;;
12316;SDS011;6222;50.866;6.744;2022-08-21T03:10:04;5.70;;;3.20;;
12316;SDS011;6222;50.866;6.744;2022-08-21T03:12:32;6.15;;;3.35;;
12316;SDS011;6222;50.866;6.744;2022-08-21T03:15:00;4.10;;;2.90;;
12316;SDS011;6222;50.866;6.744;2022-08-21T03:17:27;7.13;;;3.10;;
12316;SDS011;6222;50.866;6.744;2022-08-21T03:19:55;5.53;;;2.92;;
12316;SDS011;6222;50.866;6.744;2022-08-21T03:22:24;4.97;;;3.10;;
12316;SDS011;6222;50.866;6.744;2022-08-21T03:24:51;6.50;;;2.90;;
12316;SDS011;6222;50.866;6.744;2022-08-21T03:27:18;4.90;;;2.90;;
12316;SDS011;6222;50.866;6.744;2022-08-21T03:29:45;6.05;;;3.38;;
12316;SDS011;6222;50.866;6.744;2022-08-21T03:32:12;6.45;;;3.15;;
12316;SDS011;6222;50.866;6.744;2022-08-21T03:34:39;6.28;;;3.35;;
12316;SDS011;6222;50.866;6.744;2022-08-21T03:37:07;6.00;;;3.10;;
12316;SDS011;6222;50.866;6.744;2022-08-21T03:39:37;4.57;;;2.97;;
12316;SDS011;6222;50.866;6.744;2022-08-21T03:42:04;4.83;;;3.20;;
12316;SDS011;6222;50.866;6.744;2022-08-21T03:44:31;4.45;;;2.95;;
12316;SDS011;6222;50.866;6.744;2022-08-21T03:46:59;5.22;;;3.20;;
12316;SDS011;6222;50.866;6.744;2022-08-21T03:49:27;4.95;;;3.03;;
12316;SDS011;6222;50.866;6.744;2022-08-21T03:51:54;6.32;;;3.13;;
12316;SDS011;6222;50.866;6.744;2022-08-21T03:54:21;8.23;;;3.10;;
12316;SDS011;6222;50.866;6.744;2022-08-21T03:56:49;7.60;;;3.63;;
12316;SDS011;6222;50.866;6.744;2022-08-21T03:59:17;6.25;;;2.83;;
12316;SDS011;6222;50.866;6.744;2022-08-21T04:01:50;7.32;;;3.00;;
12316;SDS011;6222;50.866;6.744;2022-08-21T04:04:18;6.05;;;3.28;;
12316;SDS011;6222;50.866;6.744;2022-08-21T04:06:45;5.28;;;3.30;;
12316;SDS011;6222;50.866;6.744;2022-08-21T04:09:12;5.03;;;2.88;;
12316;SDS011;6222;50.866;6.744;2022-08-21T04:11:39;5.05;;;3.33;;
12316;SDS011;6222;50.866;6.744;2022-08-21T04:14:08;6.25;;;3.35;;
12316;SDS011;6222;50.866;6.744;2022-08-21T04:16:35;5.70;;;3.42;;
12316;SDS011;6222;50.866;6.744;2022-08-21T04:19:02;5.68;;;3.35;;
12316;SDS011;6222;50.866;6.744;2022-08-21T04:21:29;5.65;;;3.45;;
12316;SDS011;6222;50.866;6.744;2022-08-21T04:23:57;5.15;;;3.30;;
12316;SDS011;6222;50.866;6.744;2022-08-21T04:26:24;5.72;;;3.55;;
12316;SDS011;6222;50.866;6.744;2022-08-21T04:28:51;5.18;;;3.30;;
12316;SDS011;6222;50.866;6.744;2022-08-21T04:31:19;5.85;;;3.47;;
12316;SDS011;6222;50.866;6.744;2022-08-21T04:33:47;5.63;;;3.67;;
12316;SDS011;6222;50.866;6.744;2022-08-21T04:36:14;6.22;;;3.72;;
12316;SDS011;6222;50.866;6.744;2022-08-21T04:38:41;5.60;;;3.63;;
12316;SDS011;6222;50.866;6.744;2022-08-21T04:41:08;5.13;;;3.38;;
12316;SDS011;6222;50.866;6.744;2022-08-21T04:43:37;5.85;;;3.60;;
12316;SDS011;6222;50.866;6.744;2022-08-21T04:46:04;5.15;;;3.45;;
12316;SDS011;6222;50.866;6.744;2022-08-21T04:48:32;5.68;;;3.40;;
12316;SDS011;6222;50.866;6.744;2022-08-21T04:51:00;5.05;;;3.40;;
12316;SDS011;6222;50.866;6.744;2022-08-21T04:53:30;6.43;;;3.67;;
12316;SDS011;6222;50.866;6.744;2022-08-21T04:55:59;5.55;;;3.08;;
12316;SDS011;6222;50.866;6.744;2022-08-21T04:58:29;6.03;;;3.60;;
12316;SDS011;6222;50.866;6.744;2022-08-21T05:00:58;6.18;;;3.40;;
12316;SDS011;6222;50.866;6.744;2022-08-21T05:03:26;4.40;;;3.20;;
12316;SDS011;6222;50.866;6.744;2022-08-21T05:05:55;6.45;;;3.60;;
12316;SDS011;6222;50.866;6.744;2022-08-21T05:08:24;4.90;;;3.50;;
12316;SDS011;6222;50.866;6.744;2022-08-21T05:10:52;4.50;;;3.60;;
12316;SDS011;6222;50.866;6.744;2022-08-21T05:13:19;4.70;;;3.60;;
12316;SDS011;6222;50.866;6.744;2022-08-21T05:15:47;5.28;;;3.60;;
12316;SDS011;6222;50.866;6.744;2022-08-21T05:18:14;5.40;;;3.47;;
12316;SDS011;6222;50.866;6.744;2022-08-21T05:20:41;5.18;;;3.60;;
12316;SDS011;6222;50.866;6.744;2022-08-21T05:23:12;5.25;;;3.58;;
12316;SDS011;6222;50.866;6.744;2022-08-21T05:25:39;4.90;;;3.80;;
12316;SDS011;6222;50.866;6.744;2022-08-21T05:28:08;6.90;;;3.90;;
12316;SDS011;6222;50.866;6.744;2022-08-21T05:30:35;6.37;;;4.00;;
12316;SDS011;6222;50.866;6.744;2022-08-21T05:33:03;6.32;;;3.83;;
12316;SDS011;6222;50.866;6.744;2022-08-21T05:35:31;4.82;;;3.95;;
12316;SDS011;6222;50.866;6.744;2022-08-21T05:37:58;5.63;;;3.45;;
12316;SDS011;6222;50.866;6.744;2022-08-21T05:40:27;5.57;;;3.65;;
12316;SDS011;6222;50.866;6.744;2022-08-21T05:42:55;5.07;;;3.28;;
12316;SDS011;6222;50.866;6.744;2022-08-21T05:45:24;4.82;;;3.40;;
12316;SDS011;6222;50.866;6.744;2022-08-21T05:47:52;4.88;;;2.88;;
12316;SDS011;6222;50.866;6.744;2022-08-21T05:50:19;3.85;;;3.00;;
12316;SDS011;6222;50.866;6.744;2022-08-21T05:52:46;4.90;;;2.75;;
12316;SDS011;6222;50.866;6.744;2022-08-21T05:55:13;4.95;;;2.70;;
12316;SDS011;6222;50.866;6.744;2022-08-21T05:57:42;4.57;;;2.90;;
12316;SDS011;6222;50.866;6.744;2022-08-21T06:00:09;4.22;;;2.75;;
12316;SDS011;6222;50.866;6.744;2022-08-21T06:02:37;4.95;;;2.85;;
12316;SDS011;6222;50.866;6.744;2022-08-21T06:05:05;4.10;;;2.87;;
12316;SDS011;6222;50.866;6.744;2022-08-21T06:07:32;4.25;;;2.90;;
12316;SDS011;6222;50.866;6.744;2022-08-21T06:09:59;4.63;;;2.65;;
12316;SDS011;6222;50.866;6.744;2022-08-21T06:12:26;2.97;;;2.60;;
12316;SDS011;6222;50.866;6.744;2022-08-21T06:14:55;4.30;;;2.90;;
12316;SDS011;6222;50.866;6.744;2022-08-21T06:17:22;5.60;;;2.90;;
12316;SDS011;6222;50.866;6.744;2022-08-21T06:19:50;5.72;;;3.00;;
12316;SDS011;6222;50.866;6.744;2022-08-21T06:22:18;5.25;;;2.78;;
12316;SDS011;6222;50.866;6.744;2022-08-21T06:24:45;3.60;;;2.40;;
12316;SDS011;6222;50.866;6.744;2022-08-21T06:27:12;5.50;;;2.90;;
12316;SDS011;6222;50.866;6.744;2022-08-21T06:29:40;4.85;;;3.00;;
12316;SDS011;6222;50.866;6.744;2022-08-21T06:32:10;4.93;;;2.50;;
12316;SDS011;6222;50.866;6.744;2022-08-21T06:34:37;3.75;;;2.60;;
12316;SDS011;6222;50.866;6.744;2022-08-21T06:37:04;4.38;;;2.60;;
12316;SDS011;6222;50.866;6.744;2022-08-21T06:39:32;3.60;;;2.45;;
12316;SDS011;6222;50.866;6.744;2022-08-21T06:41:59;4.53;;;2.83;;
12316;SDS011;6222;50.866;6.744;2022-08-21T06:44:26;4.40;;;2.60;;
12316;SDS011;6222;50.866;6.744;2022-08-21T06:46:54;5.40;;;2.70;;
12316;SDS011;6222;50.866;6.744;2022-08-21T06:49:23;4.38;;;2.40;;
12316;SDS011;6222;50.866;6.744;2022-08-21T06:51:50;4.25;;;2.40;;
12316;SDS011;6222;50.866;6.744;2022-08-21T06:54:17;6.80;;;2.80;;
12316;SDS011;6222;50.866;6.744;2022-08-21T06:56:44;4.20;;;2.40;;
12316;SDS011;6222;50.866;6.744;2022-08-21T06:59:11;4.28;;;2.17;;
12316;SDS011;6222;50.866;6.744;2022-08-21T07:01:38;3.17;;;2.10;;
12316;SDS011;6222;50.866;6.744;2022-08-21T07:04:06;4.75;;;2.20;;
12316;SDS011;6222;50.866;6.744;2022-08-21T07:06:34;3.88;;;2.30;;
12316;SDS011;6222;50.866;6.744;2022-08-21T07:09:02;4.90;;;2.17;;
12316;SDS011;6222;50.866;6.744;2022-08-21T07:11:29;3.35;;;2.22;;
12316;SDS011;6222;50.866;6.744;2022-08-21T07:13:56;4.63;;;2.20;;
12316;SDS011;6222;50.866;6.744;2022-08-21T07:16:23;3.47;;;2.00;;
12316;SDS011;6222;50.866;6.744;2022-08-21T07:18:51;3.70;;;1.90;;
12316;SDS011;6222;50.866;6.744;2022-08-21T07:21:18;4.18;;;1.63;;
12316;SDS011;6222;50.866;6.744;2022-08-21T07:23:47;2.75;;;1.42;;
12316;SDS011;6222;50.866;6.744;2022-08-21T07:26:16;3.28;;;1.70;;
12316;SDS011;6222;50.866;6.744;2022-08-21T07:28:44;3.45;;;1.70;;
12316;SDS011;6222;50.866;6.744;2022-08-21T07:31:12;3.28;;;1.70;;
12316;SDS011;6222;50.866;6.744;2022-08-21T07:33:40;5.22;;;2.10;;
12316;SDS011;6222;50.866;6.744;2022-08-21T07:36:07;3.83;;;1.60;;
12316;SDS011;6222;50.866;6.744;2022-08-21T07:38:35;2.75;;;1.80;;
12316;SDS011;6222;50.866;6.744;2022-08-21T07:41:05;3.67;;;1.70;;
12316;SDS011;6222;50.866;6.744;2022-08-21T07:43:33;2.50;;;1.48;;
12316;SDS011;6222;50.866;6.744;2022-08-21T07:46:00;3.28;;;1.60;;
12316;SDS011;6222;50.866;6.744;2022-08-21T07:48:28;3.35;;;1.70;;
12316;SDS011;6222;50.866;6.744;2022-08-21T07:50:55;3.28;;;1.67;;
12316;SDS011;6222;50.866;6.744;2022-08-21T07:53:22;2.80;;;1.60;;
12316;SDS011;6222;50.866;6.744;2022-08-21T07:55:49;5.23;;;1.63;;
12316;SDS011;6222;50.866;6.744;2022-08-21T07:58:17;3.42;;;1.70;;
12316;SDS011;6222;50.866;6.744;2022-08-21T08:00:45;4.68;;;1.65;;
12316;SDS011;6222;50.866;6.744;2022-08-21T08:03:12;4.03;;;1.65;;
12316;SDS011;6222;50.866;6.744;2022-08-21T08:05:39;4.50;;;1.80;;
12316;SDS011;6222;50.866;6.744;2022-08-21T08:08:06;4.35;;;1.63;;
12316;SDS011;6222;50.866;6.744;2022-08-21T08:10:33;3.33;;;1.63;;
12316;SDS011;6222;50.866;6.744;2022-08-21T08:13:00;3.63;;;1.47;;
12316;SDS011;6222;50.866;6.744;2022-08-21T08:15:29;5.00;;;2.00;;
12316;SDS011;6222;50.866;6.744;2022-08-21T08:17:56;2.83;;;1.53;;
12316;SDS011;6222;50.866;6.744;2022-08-21T08:20:24;5.63;;;1.67;;
12316;SDS011;6222;50.866;6.744;2022-08-21T08:22:52;3.35;;;1.70;;
12316;SDS011;6222;50.866;6.744;2022-08-21T08:25:19;3.55;;;1.40;;
12316;SDS011;6222;50.866;6.744;2022-08-21T08:27:47;3.08;;;1.42;;
12316;SDS011;6222;50.866;6.744;2022-08-21T08:30:15;3.22;;;1.50;;
12316;SDS011;6222;50.866;6.744;2022-08-21T08:32:44;5.38;;;1.60;;
12316;SDS011;6222;50.866;6.744;2022-08-21T08:35:12;5.40;;;1.48;;
12316;SDS011;6222;50.866;6.744;2022-08-21T08:37:39;4.15;;;1.55;;
12316;SDS011;6222;50.866;6.744;2022-08-21T08:40:10;3.17;;;1.40;;
12316;SDS011;6222;50.866;6.744;2022-08-21T08:42:37;3.33;;;1.50;;
12316;SDS011;6222;50.866;6.744;2022-08-21T08:45:05;4.93;;;1.30;;
12316;SDS011;6222;50.866;6.744;2022-08-21T08:47:34;2.97;;;1.17;;
12316;SDS011;6222;50.866;6.744;2022-08-21T08:50:05;4.53;;;1.48;;
12316;SDS011;6222;50.866;6.744;2022-08-21T08:52:34;3.22;;;1.20;;
12316;SDS011;6222;50.866;6.744;2022-08-21T08:55:03;3.15;;;1.15;;
12316;SDS011;6222;50.866;6.744;2022-08-21T08:57:31;4.43;;;1.40;;
12316;SDS011;6222;50.866;6.744;2022-08-21T09:00:03;4.50;;;1.20;;
12316;SDS011;6222;50.866;6.744;2022-08-21T09:02:30;3.58;;;1.38;;
12316;SDS011;6222;50.866;6.744;2022-08-21T09:04:58;3.28;;;1.20;;
12316;SDS011;6222;50.866;6.744;2022-08-21T09:07:31;3.03;;;1.00;;
12316;SDS011;6222;50.866;6.744;2022-08-21T09:10:05;4.35;;;1.20;;
12316;SDS011;6222;50.866;6.744;2022-08-21T09:12:38;3.70;;;1.23;;
12316;SDS011;6222;50.866;6.744;2022-08-21T09:15:09;4.95;;;1.23;;
12316;SDS011;6222;50.866;6.744;2022-08-21T09:17:40;4.32;;;1.20;;
12316;SDS011;6222;50.866;6.744;2022-08-21T09:20:17;2.58;;;1.02;;
12316;SDS011;6222;50.866;6.744;2022-08-21T09:22:55;4.10;;;1.40;;
12316;SDS011;6222;50.866;6.744;2022-08-21T09:25:32;5.68;;;2.00;;
12316;SDS011;6222;50.866;6.744;2022-08-21T09:28:00;3.57;;;0.93;;
12316;SDS011;6222;50.866;6.744;2022-08-21T09:30:29;3.45;;;1.20;;
12316;SDS011;6222;50.866;6.744;2022-08-21T09:32:57;2.55;;;1.02;;
12316;SDS011;6222;50.866;6.744;2022-08-21T09:35:24;3.92;;;1.20;;
12316;SDS011;6222;50.866;6.744;2022-08-21T09:37:54;4.20;;;1.15;;
12316;SDS011;6222;50.866;6.744;2022-08-21T09:40:26;3.80;;;1.20;;
12316;SDS011;6222;50.866;6.744;2022-08-21T09:42:56;3.92;;;1.35;;
12316;SDS011;6222;50.866;6.744;2022-08-21T09:45:24;4.00;;;1.33;;
12316;SDS011;6222;50.866;6.744;2022-08-21T09:47:51;4.07;;;1.58;;
12316;SDS011;6222;50.866;6.744;2022-08-21T09:50:20;4.43;;;1.38;;
12316;SDS011;6222;50.866;6.744;2022-08-21T09:52:48;2.95;;;1.30;;
12316;SDS011;6222;50.866;6.744;2022-08-21T09:55:20;4.07;;;1.50;;
12316;SDS011;6222;50.866;6.744;2022-08-21T09:58:04;5.47;;;1.53;;
12316;SDS011;6222;50.866;6.744;2022-08-21T10:00:33;5.47;;;1.60;;
12316;SDS011;6222;50.866;6.744;2022-08-21T10:03:07;5.20;;;1.48;;
12316;SDS011;6222;50.866;6.744;2022-08-21T10:05:34;3.30;;;1.15;;
12316;SDS011;6222;50.866;6.744;2022-08-21T10:08:02;3.03;;;1.25;;
12316;SDS011;6222;50.866;6.744;2022-08-21T10:10:32;3.58;;;1.00;;
12316;SDS011;6222;50.866;6.744;2022-08-21T10:13:03;3.23;;;1.30;;
12316;SDS011;6222;50.866;6.744;2022-08-21T10:15:36;3.22;;;1.33;;
12316;SDS011;6222;50.866;6.744;2022-08-21T10:18:07;4.23;;;1.10;;
12316;SDS011;6222;50.866;6.744;2022-08-21T10:20:37;4.10;;;1.30;;
12316;SDS011;6222;50.866;6.744;2022-08-21T10:23:20;3.97;;;1.20;;
12316;SDS011;6222;50.866;6.744;2022-08-21T10:25:52;3.95;;;1.13;;
12316;SDS011;6222;50.866;6.744;2022-08-21T10:28:24;5.10;;;2.30;;
12316;SDS011;6222;50.866;6.744;2022-08-21T10:30:55;5.03;;;1.33;;
12316;SDS011;6222;50.866;6.744;2022-08-21T10:33:26;2.97;;;1.00;;
12316;SDS011;6222;50.866;6.744;2022-08-21T10:35:57;3.95;;;1.00;;
12316;SDS011;6222;50.866;6.744;2022-08-21T10:38:42;3.42;;;1.05;;
12316;SDS011;6222;50.866;6.744;2022-08-21T10:41:17;4.65;;;1.30;;
12316;SDS011;6222;50.866;6.744;2022-08-21T10:43:49;2.95;;;0.90;;
12316;SDS011;6222;50.866;6.744;2022-08-21T10:46:21;2.83;;;1.10;;
12316;SDS011;6222;50.866;6.744;2022-08-21T10:48:50;3.70;;;1.00;;
12316;SDS011;6222;50.866;6.744;2022-08-21T10:51:20;2.20;;;0.87;;
12316;SDS011;6222;50.866;6.744;2022-08-21T10:53:55;2.60;;;1.00;;
12316;SDS011;6222;50.866;6.744;2022-08-21T10:56:24;2.90;;;1.13;;
12316;SDS011;6222;50.866;6.744;2022-08-21T10:59:02;3.85;;;1.40;;
12316;SDS011;6222;50.866;6.744;2022-08-21T11:01:34;2.60;;;1.00;;
12316;SDS011;6222;50.866;6.744;2022-08-21T11:04:11;2.30;;;1.00;;
12316;SDS011;6222;50.866;6.744;2022-08-21T11:06:41;2.95;;;1.08;;
12316;SDS011;6222;50.866;6.744;2022-08-21T11:09:11;3.22;;;1.17;;
12316;SDS011;6222;50.866;6.744;2022-08-21T11:11:41;3.00;;;1.38;;
12316;SDS011;6222;50.866;6.744;2022-08-21T11:14:13;3.03;;;1.20;;
12316;SDS011;6222;50.866;6.744;2022-08-21T11:16:45;3.78;;;1.20;;
12316;SDS011;6222;50.866;6.744;2022-08-21T11:19:15;4.70;;;2.58;;
12316;SDS011;6222;50.866;6.744;2022-08-21T11:21:45;2.20;;;1.10;;
12316;SDS011;6222;50.866;6.744;2022-08-21T11:24:16;3.30;;;1.10;;
12316;SDS011;6222;50.866;6.744;2022-08-21T11:26:47;2.88;;;1.10;;
12316;SDS011;6222;50.866;6.744;2022-08-21T11:29:17;2.73;;;1.13;;
12316;SDS011;6222;50.866;6.744;2022-08-21T11:31:51;3.33;;;1.10;;
12316;SDS011;6222;50.866;6.744;2022-08-21T11:34:22;3.17;;;1.20;;
12316;SDS011;6222;50.866;6.744;2022-08-21T11:36:55;3.53;;;1.30;;
12316;SDS011;6222;50.866;6.744;2022-08-21T11:39:26;3.85;;;1.20;;
12316;SDS011;6222;50.866;6.744;2022-08-21T11:42:01;2.97;;;1.23;;
12316;SDS011;6222;50.866;6.744;2022-08-21T11:44:34;3.05;;;1.00;;
12316;SDS011;6222;50.866;6.744;2022-08-21T11:47:08;2.55;;;1.05;;
12316;SDS011;6222;50.866;6.744;2022-08-21T11:49:42;3.60;;;1.23;;
12316;SDS011;6222;50.866;6.744;2022-08-21T11:52:13;3.42;;;0.90;;
12316;SDS011;6222;50.866;6.744;2022-08-21T11:54:43;3.40;;;1.15;;
12316;SDS011;6222;50.866;6.744;2022-08-21T11:57:17;2.50;;;0.90;;
12316;SDS011;6222;50.866;6.744;2022-08-21T11:59:46;3.97;;;1.30;;
12316;SDS011;6222;50.866;6.744;2022-08-21T12:02:18;3.28;;;1.00;;
12316;SDS011;6222;50.866;6.744;2022-08-21T12:04:47;3.10;;;1.25;;
12316;SDS011;6222;50.866;6.744;2022-08-21T12:07:15;4.20;;;1.02;;
12316;SDS011;6222;50.866;6.744;2022-08-21T12:09:51;2.53;;;1.10;;
12316;SDS011;6222;50.866;6.744;2022-08-21T12:12:24;2.03;;;1.02;;
12316;SDS011;6222;50.866;6.744;2022-08-21T12:15:15;3.37;;;1.23;;
12316;SDS011;6222;50.866;6.744;2022-08-21T12:17:39;3.83;;;1.13;;
12316;SDS011;6222;50.866;6.744;2022-08-21T12:20:15;3.33;;;0.97;;
12316;SDS011;6222;50.866;6.744;2022-08-21T12:22:47;2.72;;;0.88;;
12316;SDS011;6222;50.866;6.744;2022-08-21T12:25:17;3.22;;;1.20;;
12316;SDS011;6222;50.866;6.744;2022-08-21T12:27:46;3.10;;;1.30;;
12316;SDS011;6222;50.866;6.744;2022-08-21T12:30:22;3.00;;;1.00;;
12316;SDS011;6222;50.866;6.744;2022-08-21T12:32:54;2.47;;;1.00;;
12316;SDS011;6222;50.866;6.744;2022-08-21T12:35:21;2.85;;;1.20;;
12316;SDS011;6222;50.866;6.744;2022-08-21T12:37:51;4.25;;;1.20;;
12316;SDS011;6222;50.866;6.744;2022-08-21T12:40:20;2.70;;;1.30;;
12316;SDS011;6222;50.866;6.744;2022-08-21T12:42:50;2.83;;;1.05;;
12316;SDS011;6222;50.866;6.744;2022-08-21T12:45:19;2.60;;;1.17;;
12316;SDS011;6222;50.866;6.744;2022-08-21T12:47:48;3.50;;;1.40;;
12316;SDS011;6222;50.866;6.744;2022-08-21T12:50:19;5.43;;;2.63;;
12316;SDS011;6222;50.866;6.744;2022-08-21T12:52:48;3.27;;;1.37;;
12316;SDS011;6222;50.866;6.744;2022-08-21T12:55:24;3.40;;;1.27;;
12316;SDS011;6222;50.866;6.744;2022-08-21T12:57:53;3.60;;;1.48;;
12316;SDS011;6222;50.866;6.744;2022-08-21T13:00:21;3.28;;;0.98;;
12316;SDS011;6222;50.866;6.744;2022-08-21T13:02:49;2.20;;;1.03;;
12316;SDS011;6222;50.866;6.744;2022-08-21T13:05:19;2.20;;;1.20;;
12316;SDS011;6222;50.866;6.744;2022-08-21T13:07:49;4.72;;;1.10;;
12316;SDS011;6222;50.866;6.744;2022-08-21T13:10:18;2.67;;;1.08;;
12316;SDS011;6222;50.866;6.744;2022-08-21T13:12:46;2.50;;;1.10;;
12316;SDS011;6222;50.866;6.744;2022-08-21T13:15:14;2.97;;;1.13;;
12316;SDS011;6222;50.866;6.744;2022-08-21T13:17:48;2.40;;;1.00;;
12316;SDS011;6222;50.866;6.744;2022-08-21T13:20:19;3.08;;;1.30;;
12316;SDS011;6222;50.866;6.744;2022-08-21T13:22:46;3.03;;;1.30;;
12316;SDS011;6222;50.866;6.744;2022-08-21T13:25:15;1.85;;;1.02;;
12316;SDS011;6222;50.866;6.744;2022-08-21T13:27:43;3.85;;;1.20;;
12316;SDS011;6222;50.866;6.744;2022-08-21T13:30:13;3.72;;;1.38;;
12316;SDS011;6222;50.866;6.744;2022-08-21T13:32:47;3.78;;;1.15;;
12316;SDS011;6222;50.866;6.744;2022-08-21T13:35:16;2.67;;;1.20;;
12316;SDS011;6222;50.866;6.744;2022-08-21T13:37:44;2.53;;;1.25;;
12316;SDS011;6222;50.866;6.744;2022-08-21T13:40:13;4.38;;;1.60;;
12316;SDS011;6222;50.866;6.744;2022-08-21T13:42:41;4.53;;;2.30;;
12316;SDS011;6222;50.866;6.744;2022-08-21T13:45:14;3.03;;;1.50;;
12316;SDS011;6222;50.866;6.744;2022-08-21T13:47:41;3.90;;;1.50;;
12316;SDS011;6222;50.866;6.744;2022-08-21T13:50:10;2.28;;;1.10;;
12316;SDS011;6222;50.866;6.744;2022-08-21T13:52:44;3.60;;;1.10;;
12316;SDS011;6222;50.866;6.744;2022-08-21T13:55:13;4.63;;;1.40;;
12316;SDS011;6222;50.866;6.744;2022-08-21T13:57:42;4.70;;;1.27;;
12316;SDS011;6222;50.866;6.744;2022-08-21T14:00:11;2.37;;;1.07;;
12316;SDS011;6222;50.866;6.744;2022-08-21T14:02:38;3.47;;;1.20;;
12316;SDS011;6222;50.866;6.744;2022-08-21T14:05:06;3.53;;;1.10;;
12316;SDS011;6222;50.866;6.744;2022-08-21T14:07:36;2.10;;;1.08;;
12316;SDS011;6222;50.866;6.744;2022-08-21T14:10:05;3.47;;;1.42;;
12316;SDS011;6222;50.866;6.744;2022-08-21T14:12:35;1.88;;;1.08;;
12316;SDS011;6222;50.866;6.744;2022-08-21T14:15:04;2.75;;;1.60;;
12316;SDS011;6222;50.866;6.744;2022-08-21T14:17:32;4.35;;;1.20;;
12316;SDS011;6222;50.866;6.744;2022-08-21T14:20:00;2.88;;;1.10;;
12316;SDS011;6222;50.866;6.744;2022-08-21T14:22:29;3.20;;;1.20;;
12316;SDS011;6222;50.866;6.744;2022-08-21T14:25:02;5.32;;;2.80;;
12316;SDS011;6222;50.866;6.744;2022-08-21T14:27:32;3.83;;;1.30;;
12316;SDS011;6222;50.866;6.744;2022-08-21T14:30:01;5.23;;;1.53;;
12316;SDS011;6222;50.866;6.744;2022-08-21T14:32:30;2.30;;;0.82;;
12316;SDS011;6222;50.866;6.744;2022-08-21T14:35:03;2.30;;;0.95;;
12316;SDS011;6222;50.866;6.744;2022-08-21T14:37:30;1.92;;;0.85;;
12316;SDS011;6222;50.866;6.744;2022-08-21T14:39:58;3.63;;;1.02;;
12316;SDS011;6222;50.866;6.744;2022-08-21T14:42:26;2.58;;;1.00;;
12316;SDS011;6222;50.866;6.744;2022-08-21T14:44:53;2.42;;;1.00;;
12316;SDS011;6222;50.866;6.744;2022-08-21T14:47:23;1.90;;;0.93;;
12316;SDS011;6222;50.866;6.744;2022-08-21T14:49:50;1.70;;;0.75;;
12316;SDS011;6222;50.866;6.744;2022-08-21T14:52:18;1.73;;;0.90;;
12316;SDS011;6222;50.866;6.744;2022-08-21T14:54:47;2.05;;;1.00;;
12316;SDS011;6222;50.866;6.744;2022-08-21T14:57:14;2.72;;;0.70;;
12316;SDS011;6222;50.866;6.744;2022-08-21T14:59:43;3.72;;;0.98;;
12316;SDS011;6222;50.866;6.744;2022-08-21T15:02:10;1.88;;;0.80;;
12316;SDS011;6222;50.866;6.744;2022-08-21T15:04:37;2.22;;;1.08;;
12316;SDS011;6222;50.866;6.744;2022-08-21T15:07:04;1.48;;;0.70;;
12316;SDS011;6222;50.866;6.744;2022-08-21T15:09:31;1.80;;;0.97;;